Time;durP1;ratioP1;P1;durP2;ratioP2;P2;SDS_P1;SDS_P2;PMS_P1;PMS_P2;Temp;Humidity;BMP_temperature;BMP_pressure;BME280_temperature;BME280_humidity;BME280_pressure;Samples;Min_cycle;Max_cycle;Signal;HPM_P1;HPM_P2
2021/04/08 00:00:07;;;;;;;9.27;4.05;;;4.20;99.90;;;;;;2569329;23;20020;-69
2021/04/08 00:01:11;;;;;;;14.40;4.93;;;4.20;99.90;;;;;;2568564;23;20027;-69
2021/04/08 00:02:11;;;;;;;10.68;4.55;;;4.20;99.90;;;;;;2567707;23;20008;-69
2021/04/08 00:03:12;;;;;;;13.38;4.63;;;4.20;99.90;;;;;;2569293;23;20004;-69
2021/04/08 00:04:12;;;;;;;9.65;4.57;;;4.20;99.90;;;;;;2568479;23;20047;-69
2021/04/08 00:05:14;;;;;;;11.85;5.30;;;4.20;99.90;;;;;;2569386;23;20004;-69
2021/04/08 00:06:15;;;;;;;8.50;4.40;;;4.20;99.90;;;;;;2569240;23;20005;-69
2021/04/08 00:07:15;;;;;;;12.85;5.50;;;4.20;99.90;;;;;;2569294;23;20000;-69
2021/04/08 00:08:16;;;;;;;10.10;4.75;;;4.20;99.90;;;;;;2569378;23;20036;-69
2021/04/08 00:09:17;;;;;;;9.10;4.72;;;4.20;99.90;;;;;;2569154;23;20028;-69
2021/04/08 00:10:17;;;;;;;9.65;5.38;;;4.20;99.90;;;;;;2569174;23;20051;-69
2021/04/08 00:11:18;;;;;;;15.35;4.78;;;4.20;99.90;;;;;;2569809;23;20075;-69
2021/04/08 00:12:18;;;;;;;12.52;4.55;;;4.20;99.90;;;;;;2568391;23;20001;-69
2021/04/08 00:13:19;;;;;;;13.18;4.63;;;4.10;99.90;;;;;;2569278;23;20372;-69
2021/04/08 00:14:19;;;;;;;13.88;5.43;;;4.10;99.90;;;;;;2568856;23;20096;-69
2021/04/08 00:15:20;;;;;;;10.90;5.28;;;4.10;99.90;;;;;;2569232;23;20004;-69
2021/04/08 00:16:21;;;;;;;10.15;5.03;;;4.10;99.90;;;;;;2569477;23;20001;-70
2021/04/08 00:17:22;;;;;;;12.63;4.28;;;4.10;99.90;;;;;;2568943;23;20332;-69
2021/04/08 00:18:22;;;;;;;9.90;4.95;;;4.20;99.90;;;;;;2568817;23;19996;-69
2021/04/08 00:19:23;;;;;;;12.95;4.80;;;4.10;99.90;;;;;;2567763;23;20361;-69
2021/04/08 00:20:24;;;;;;;10.15;5.18;;;4.10;99.90;;;;;;2569318;23;20004;-70
2021/04/08 00:21:25;;;;;;;12.45;6.45;;;4.10;99.90;;;;;;2568893;23;20019;-69
2021/04/08 00:22:25;;;;;;;10.82;4.75;;;4.10;99.90;;;;;;2568732;23;20005;-69
2021/04/08 00:23:26;;;;;;;14.57;5.35;;;4.10;99.90;;;;;;2569700;23;20028;-69
2021/04/08 00:24:27;;;;;;;13.55;5.50;;;4.10;99.90;;;;;;2568741;23;20066;-69
2021/04/08 00:25:27;;;;;;;10.80;5.40;;;4.10;99.90;;;;;;2569419;23;20139;-69
2021/04/08 00:26:28;;;;;;;15.55;5.50;;;4.10;99.90;;;;;;2569828;23;20076;-69
2021/04/08 00:27:29;;;;;;;13.02;5.90;;;4.10;99.90;;;;;;2568929;23;20008;-70
2021/04/08 00:28:29;;;;;;;12.55;4.22;;;4.10;99.90;;;;;;2569626;23;20000;-69
2021/04/08 00:29:30;;;;;;;15.00;5.47;;;4.10;99.90;;;;;;2569075;23;20060;-69
2021/04/08 00:30:31;;;;;;;11.18;4.80;;;4.10;99.90;;;;;;2569295;23;20325;-69
2021/04/08 00:31:31;;;;;;;11.85;5.53;;;4.10;99.90;;;;;;2569823;23;20507;-69
2021/04/08 00:32:32;;;;;;;13.13;5.60;;;4.10;99.90;;;;;;2568596;23;20352;-69
2021/04/08 00:33:33;;;;;;;8.80;5.13;;;4.10;99.90;;;;;;2569235;23;20001;-69
2021/04/08 00:34:34;;;;;;;11.02;4.57;;;4.10;99.90;;;;;;2569893;23;20028;-69
2021/04/08 00:35:34;;;;;;;12.27;5.43;;;4.10;99.90;;;;;;2568740;23;20098;-69
2021/04/08 00:36:35;;;;;;;12.75;5.15;;;4.10;99.90;;;;;;2569667;23;20000;-69
2021/04/08 00:37:36;;;;;;;10.35;5.20;;;4.10;99.90;;;;;;2569092;23;20011;-69
2021/04/08 00:38:37;;;;;;;10.48;4.97;;;4.10;99.90;;;;;;2569319;23;20011;-69
2021/04/08 00:39:38;;;;;;;9.57;5.13;;;4.10;99.90;;;;;;2569312;23;19997;-69
2021/04/08 00:40:39;;;;;;;11.45;5.70;;;4.10;99.90;;;;;;2569196;23;20483;-69
2021/04/08 00:41:40;;;;;;;15.93;6.25;;;4.00;99.90;;;;;;2568538;23;20756;-69
2021/04/08 00:42:42;;;;;;;11.18;5.82;;;4.00;99.90;;;;;;2568769;23;20007;-69
2021/04/08 00:43:43;;;;;;;14.90;5.60;;;4.00;99.90;;;;;;2568849;23;20075;-69
2021/04/08 00:44:43;;;;;;;17.00;5.55;;;4.00;99.90;;;;;;2569206;23;19999;-69
2021/04/08 00:45:44;;;;;;;12.95;5.75;;;4.00;99.90;;;;;;2568228;23;20013;-69
2021/04/08 00:46:44;;;;;;;11.50;5.32;;;4.00;99.90;;;;;;2569333;23;19997;-69
2021/04/08 00:47:45;;;;;;;11.80;5.38;;;4.00;99.90;;;;;;2569096;23;19996;-69
2021/04/08 00:48:45;;;;;;;20.15;6.07;;;4.00;99.90;;;;;;2569339;23;20011;-69
2021/04/08 00:49:46;;;;;;;13.93;6.75;;;4.00;99.90;;;;;;2569193;23;20001;-69
2021/04/08 00:50:47;;;;;;;11.18;5.60;;;4.00;99.90;;;;;;2569067;23;20309;-69
2021/04/08 00:51:47;;;;;;;8.57;5.50;;;4.00;99.90;;;;;;2569051;23;20071;-69
2021/04/08 00:53:07;;;;;;;16.33;6.15;;;4.00;99.90;;;;;;2568402;23;20046;-69
2021/04/08 00:54:07;;;;;;;15.97;6.30;;;4.00;99.90;;;;;;2568924;23;20005;-69
2021/04/08 00:55:09;;;;;;;14.68;6.28;;;3.90;99.90;;;;;;2569125;23;20660;-69
2021/04/08 00:56:10;;;;;;;9.07;5.40;;;3.90;99.90;;;;;;2569081;23;20001;-69
2021/04/08 00:57:10;;;;;;;16.35;5.55;;;3.90;99.90;;;;;;2569079;23;20082;-69
2021/04/08 00:58:12;;;;;;;10.80;5.75;;;3.90;99.90;;;;;;2568873;23;20003;-69
2021/04/08 00:59:14;;;;;;;13.25;5.28;;;3.90;99.90;;;;;;2568790;23;20028;-69
2021/04/08 01:00:15;;;;;;;16.10;5.50;;;3.90;99.90;;;;;;2569066;23;20005;-69
2021/04/08 01:01:16;;;;;;;14.90;6.13;;;3.90;99.90;;;;;;2569130;23;20009;-70
2021/04/08 01:02:16;;;;;;;13.88;6.45;;;3.90;99.90;;;;;;2568453;23;20015;-69
2021/04/08 01:03:18;;;;;;;10.52;6.10;;;3.90;99.90;;;;;;2568839;23;20004;-70
2021/04/08 01:04:19;;;;;;;9.18;5.45;;;3.90;99.90;;;;;;2568336;23;20024;-69
2021/04/08 01:05:20;;;;;;;14.05;6.13;;;3.90;99.90;;;;;;2568214;23;20008;-69
2021/04/08 01:06:20;;;;;;;13.52;6.35;;;3.90;99.90;;;;;;2568820;23;20416;-69
2021/04/08 01:07:21;;;;;;;17.08;6.00;;;3.90;99.90;;;;;;2568716;23;20028;-69
2021/04/08 01:08:22;;;;;;;13.45;5.78;;;3.90;99.90;;;;;;2555543;23;20017;-69
2021/04/08 01:09:23;;;;;;;11.73;5.47;;;3.90;99.90;;;;;;2555661;23;20009;-69
2021/04/08 01:10:26;;;;;;;9.85;5.47;;;3.80;99.90;;;;;;2569218;23;20000;-69
2021/04/08 01:11:27;;;;;;;17.05;6.00;;;3.80;99.90;;;;;;2567823;23;20039;-69
2021/04/08 01:12:28;;;;;;;14.13;6.50;;;3.80;99.90;;;;;;2568511;23;20421;-69
2021/04/08 01:13:30;;;;;;;15.10;6.35;;;3.80;99.90;;;;;;2568660;23;20000;-69
2021/04/08 01:14:31;;;;;;;12.68;6.72;;;3.80;99.90;;;;;;2569158;23;20386;-69
2021/04/08 01:15:33;;;;;;;15.95;7.18;;;3.80;99.90;;;;;;2568840;23;20008;-69
2021/04/08 01:16:58;;;;;;;14.00;6.13;;;3.80;99.90;;;;;;2569373;23;20000;-70
2021/04/08 01:18:09;;;;;;;13.05;6.20;;;3.80;99.90;;;;;;2569026;23;20394;-69
2021/04/08 01:19:47;;;;;;;11.13;6.40;;;3.80;99.90;;;;;;2567715;23;20363;-69
2021/04/08 01:21:06;;;;;;;9.77;5.65;;;3.70;99.90;;;;;;2569065;23;20019;-70
2021/04/08 01:22:48;;;;;;;17.15;6.10;;;3.70;99.90;;;;;;2568467;23;20008;-69
2021/04/08 01:24:19;;;;;;;11.48;6.00;;;3.70;99.90;;;;;;2568518;23;20076;-69
2021/04/08 01:25:48;;;;;;;14.55;6.07;;;3.70;99.90;;;;;;2568853;23;20008;-69
2021/04/08 01:27:16;;;;;;;12.93;6.05;;;3.70;99.90;;;;;;2568075;23;20471;-69
2021/04/08 01:28:24;;;;;;;12.27;5.97;;;3.60;99.90;;;;;;2567857;23;20405;-69
2021/04/08 01:29:58;;;;;;;9.98;5.82;;;3.60;99.90;;;;;;2568086;23;20012;-69
2021/04/08 01:31:04;;;;;;;13.18;5.93;;;3.60;99.90;;;;;;2574473;23;20016;-69
2021/04/08 01:32:07;;;;;;;15.80;5.88;;;3.60;99.90;;;;;;2555389;23;20013;-69
2021/04/08 01:33:37;;;;;;;14.35;7.03;;;3.60;99.90;;;;;;2568991;22;20479;-69
2021/04/08 01:34:41;;;;;;;10.38;6.25;;;3.60;99.90;;;;;;2581629;22;20001;-69
2021/04/08 01:35:45;;;;;;;15.07;6.22;;;3.50;99.90;;;;;;2569329;23;20001;-69
2021/04/08 01:36:52;;;;;;;15.77;6.30;;;3.60;99.90;;;;;;2569247;23;19996;-69
2021/04/08 01:38:09;;;;;;;17.50;6.50;;;3.60;99.90;;;;;;2568095;23;20020;-69
2021/04/08 01:39:14;;;;;;;8.48;5.55;;;3.60;99.90;;;;;;2568189;23;20075;-69
2021/04/08 01:40:17;;;;;;;12.82;6.40;;;3.60;99.90;;;;;;2568901;23;20337;-69
2021/04/08 01:41:19;;;;;;;15.43;6.95;;;3.60;99.90;;;;;;2568853;23;20020;-69
2021/04/08 01:42:21;;;;;;;11.40;6.85;;;3.60;99.90;;;;;;2568040;23;20087;-69
2021/04/08 01:43:25;;;;;;;9.93;6.15;;;3.60;99.90;;;;;;2569198;23;20421;-69
2021/04/08 01:44:27;;;;;;;20.83;7.30;;;3.60;99.90;;;;;;2568124;23;20058;-69
2021/04/08 01:45:29;;;;;;;13.93;6.93;;;3.60;99.90;;;;;;2568981;23;20016;-69
2021/04/08 01:46:34;;;;;;;16.02;6.70;;;3.60;99.90;;;;;;2569011;23;20075;-69
2021/04/08 01:47:38;;;;;;;11.77;6.95;;;3.60;99.90;;;;;;2568917;23;20070;-69
2021/04/08 01:48:42;;;;;;;19.10;6.82;;;3.60;99.90;;;;;;2569299;23;20000;-69
2021/04/08 01:49:43;;;;;;;10.40;6.90;;;3.60;99.90;;;;;;2568230;23;20017;-69
2021/04/08 01:50:45;;;;;;;15.80;7.35;;;3.60;99.90;;;;;;2580713;22;19996;-69
2021/04/08 01:51:46;;;;;;;14.55;7.65;;;3.60;99.90;;;;;;2593255;22;19999;-69
2021/04/08 01:52:49;;;;;;;11.45;7.10;;;3.60;99.90;;;;;;2567716;23;20496;-69
2021/04/08 01:53:54;;;;;;;14.75;6.90;;;3.60;99.90;;;;;;2568835;23;20008;-69
2021/04/08 01:54:58;;;;;;;13.80;6.10;;;3.60;99.90;;;;;;2568749;23;20076;-69
2021/04/08 01:56:01;;;;;;;14.43;6.55;;;3.60;99.90;;;;;;2568581;23;20004;-69
2021/04/08 01:57:05;;;;;;;14.90;6.22;;;3.60;99.90;;;;;;2568485;23;20001;-69
2021/04/08 01:58:07;;;;;;;11.25;5.40;;;3.60;99.90;;;;;;2562304;23;20012;-69
2021/04/08 01:59:13;;;;;;;10.55;6.20;;;3.60;99.90;;;;;;2567937;23;20008;-69
2021/04/08 02:00:17;;;;;;;16.17;7.57;;;3.60;99.90;;;;;;2568445;23;20513;-69
2021/04/08 02:01:22;;;;;;;15.07;6.60;;;3.60;99.90;;;;;;2570720;23;20005;-69
2021/04/08 02:02:24;;;;;;;17.20;6.68;;;3.60;99.90;;;;;;2569466;23;20083;-69
2021/04/08 02:03:25;;;;;;;12.73;7.30;;;3.60;99.90;;;;;;2570366;23;20012;-69
2021/04/08 02:04:28;;;;;;;13.85;6.38;;;3.60;99.90;;;;;;2570482;23;20031;-69
2021/04/08 02:05:29;;;;;;;9.88;6.68;;;3.60;99.90;;;;;;2570181;23;20488;-69
2021/04/08 02:06:31;;;;;;;10.70;6.68;;;3.60;99.90;;;;;;2570418;23;20015;-69
2021/04/08 02:07:33;;;;;;;16.45;8.05;;;3.60;99.90;;;;;;2570559;23;20496;-69
2021/04/08 02:08:36;;;;;;;10.52;6.55;;;3.60;99.90;;;;;;2570336;23;20009;-69
2021/04/08 02:09:38;;;;;;;11.65;6.97;;;3.60;99.90;;;;;;2570281;23;20008;-69
2021/04/08 02:10:40;;;;;;;11.85;6.60;;;3.60;99.90;;;;;;2570448;23;20084;-69
2021/04/08 02:11:42;;;;;;;9.70;7.57;;;3.60;99.90;;;;;;2570449;23;20001;-69
2021/04/08 02:12:46;;;;;;;16.85;6.88;;;3.60;99.90;;;;;;2568927;23;20011;-69
2021/04/08 02:13:49;;;;;;;18.48;7.22;;;3.60;99.90;;;;;;2569821;23;20005;-69
2021/04/08 02:14:51;;;;;;;12.70;7.68;;;3.60;99.90;;;;;;2570382;23;20004;-70
2021/04/08 02:15:52;;;;;;;14.40;8.07;;;3.50;99.90;;;;;;2570486;23;20015;-69
2021/04/08 02:16:52;;;;;;;17.08;7.68;;;3.50;99.90;;;;;;2570449;23;20009;-69
2021/04/08 02:17:57;;;;;;;13.82;7.63;;;3.50;99.90;;;;;;2570461;23;20453;-69
2021/04/08 02:19:00;;;;;;;15.05;8.02;;;3.60;99.90;;;;;;2570021;23;20345;-68
2021/04/08 02:20:08;;;;;;;11.18;7.10;;;3.50;99.90;;;;;;2570561;23;20001;-70
2021/04/08 02:21:09;;;;;;;20.52;8.48;;;3.50;99.90;;;;;;2570353;23;20012;-69
2021/04/08 02:22:10;;;;;;;10.68;7.63;;;3.50;99.90;;;;;;2569248;23;20016;-69
2021/04/08 02:23:16;;;;;;;14.43;7.80;;;3.50;99.90;;;;;;2570323;23;20083;-69
2021/04/08 02:24:18;;;;;;;10.43;6.57;;;3.50;99.90;;;;;;2570658;23;20461;-69
2021/04/08 02:25:21;;;;;;;12.55;7.03;;;3.50;99.90;;;;;;2570426;23;20007;-69
2021/04/08 02:26:22;;;;;;;11.13;7.63;;;3.50;99.90;;;;;;2570420;23;20294;-69
2021/04/08 02:27:23;;;;;;;14.75;7.97;;;3.50;99.90;;;;;;2570533;23;20000;-69
2021/04/08 02:28:27;;;;;;;16.42;7.43;;;3.50;99.90;;;;;;2569665;23;20004;-69
2021/04/08 02:29:29;;;;;;;16.15;8.43;;;3.50;99.90;;;;;;2557818;23;20012;-69
2021/04/08 02:30:30;;;;;;;22.67;9.32;;;3.40;99.90;;;;;;2569522;23;20012;-69
2021/04/08 02:31:32;;;;;;;14.57;8.20;;;3.50;99.90;;;;;;2570340;23;20007;-69
2021/04/08 02:32:36;;;;;;;14.27;8.10;;;3.40;99.90;;;;;;2569953;23;20035;-69
2021/04/08 02:33:38;;;;;;;13.32;8.27;;;3.40;99.90;;;;;;2570912;23;20005;-69
2021/04/08 02:34:39;;;;;;;15.52;7.93;;;3.40;99.90;;;;;;2570583;23;20005;-69
2021/04/08 02:35:40;;;;;;;15.60;8.10;;;3.40;99.90;;;;;;2569606;23;20008;-69
2021/04/08 02:36:41;;;;;;;17.98;9.13;;;3.40;99.90;;;;;;2569708;23;20042;-69
2021/04/08 02:37:42;;;;;;;17.10;8.88;;;3.40;99.90;;;;;;2570288;23;20008;-70
2021/04/08 02:38:43;;;;;;;15.93;8.80;;;3.40;99.90;;;;;;2569493;23;20476;-69
2021/04/08 02:39:44;;;;;;;18.30;9.05;;;3.40;99.90;;;;;;2569062;23;20468;-69
2021/04/08 02:40:44;;;;;;;17.20;8.88;;;3.40;99.90;;;;;;2569225;23;20538;-69
2021/04/08 02:41:46;;;;;;;14.82;7.78;;;3.40;99.90;;;;;;2569496;23;20062;-69
2021/04/08 02:42:49;;;;;;;17.25;8.20;;;3.40;99.90;;;;;;2570092;23;20051;-69
2021/04/08 02:43:50;;;;;;;15.48;8.05;;;3.40;99.90;;;;;;2556888;23;20005;-69
2021/04/08 02:44:50;;;;;;;14.95;7.82;;;3.40;99.90;;;;;;2557741;23;20450;-69
2021/04/08 02:45:51;;;;;;;11.77;7.30;;;3.40;99.90;;;;;;2570345;23;20105;-69
2021/04/08 02:46:51;;;;;;;15.48;7.75;;;3.30;99.90;;;;;;2570693;23;20321;-69
2021/04/08 02:47:52;;;;;;;19.48;8.55;;;3.30;99.90;;;;;;2570066;23;19997;-69
2021/04/08 02:48:53;;;;;;;12.13;8.15;;;3.30;99.90;;;;;;2570077;23;20009;-69
2021/04/08 02:49:54;;;;;;;14.45;8.15;;;3.30;99.90;;;;;;2570358;23;20008;-69
2021/04/08 02:50:59;;;;;;;16.80;8.05;;;3.30;99.90;;;;;;2569587;23;20004;-69
2021/04/08 02:52:04;;;;;;;18.40;8.73;;;3.30;99.90;;;;;;2570452;23;20004;-69
2021/04/08 02:53:31;;;;;;;14.48;7.90;;;3.30;99.90;;;;;;2556317;23;20008;-69
2021/04/08 02:54:39;;;;;;;12.25;7.68;;;3.30;99.90;;;;;;2563268;23;20054;-69
2021/04/08 02:55:49;;;;;;;13.73;7.72;;;3.30;99.90;;;;;;2570479;23;20001;-69
2021/04/08 02:56:56;;;;;;;16.25;7.93;;;3.30;99.90;;;;;;2570184;23;20009;-69
2021/04/08 02:58:01;;;;;;;18.20;8.48;;;3.30;99.90;;;;;;2570588;23;20375;-69
2021/04/08 02:59:12;;;;;;;12.02;8.60;;;3.30;99.90;;;;;;2570403;23;20290;-69
2021/04/08 03:00:14;;;;;;;9.40;7.53;;;3.30;99.90;;;;;;2570396;23;20128;-69
2021/04/08 03:01:20;;;;;;;17.73;9.63;;;3.20;99.90;;;;;;2570406;23;20001;-69
2021/04/08 03:02:26;;;;;;;13.10;7.72;;;3.30;99.90;;;;;;2568024;23;20035;-69
2021/04/08 03:03:40;;;;;;;18.85;8.75;;;3.30;99.90;;;;;;2569588;23;20099;-69
2021/04/08 03:04:46;;;;;;;16.75;9.40;;;3.30;99.90;;;;;;2569220;23;19998;-69
2021/04/08 03:05:47;;;;;;;18.85;9.15;;;3.20;99.90;;;;;;2569450;23;20008;-69
2021/04/08 03:06:50;;;;;;;15.35;9.23;;;3.20;99.90;;;;;;2569168;23;20055;-69
2021/04/08 03:07:53;;;;;;;16.05;9.35;;;3.20;99.90;;;;;;2568345;23;20079;-69
2021/04/08 03:08:57;;;;;;;16.75;8.80;;;3.30;99.90;;;;;;2568328;23;20028;-69
2021/04/08 03:10:02;;;;;;;16.77;9.50;;;3.20;99.90;;;;;;2569155;23;20007;-69
2021/04/08 03:11:07;;;;;;;15.02;9.07;;;3.20;99.90;;;;;;2581902;22;20324;-69
2021/04/08 03:12:12;;;;;;;16.08;10.60;;;3.20;99.90;;;;;;2578667;23;20004;-69
2021/04/08 03:13:15;;;;;;;17.65;9.30;;;3.20;99.90;;;;;;2569008;23;20008;-69
2021/04/08 03:14:17;;;;;;;17.02;9.77;;;3.20;99.90;;;;;;2569555;23;20361;-69
2021/04/08 03:15:27;;;;;;;19.48;9.65;;;3.20;99.90;;;;;;2557047;23;20683;-69
2021/04/08 03:16:36;;;;;;;25.48;10.80;;;3.20;99.90;;;;;;2543990;23;20366;-69
2021/04/08 03:17:40;;;;;;;16.67;8.70;;;3.20;99.90;;;;;;2547673;23;20102;-69
2021/04/08 03:18:42;;;;;;;16.90;9.60;;;3.20;99.90;;;;;;2556357;23;20099;-69
2021/04/08 03:19:45;;;;;;;13.23;9.95;;;3.20;99.90;;;;;;2556671;23;19997;-69
2021/04/08 03:20:52;;;;;;;13.68;9.10;;;3.20;99.90;;;;;;2569134;23;20011;-69
2021/04/08 03:21:53;;;;;;;15.40;8.43;;;3.20;99.90;;;;;;2582623;22;19999;-69
2021/04/08 03:22:56;;;;;;;17.65;8.80;;;3.20;99.90;;;;;;2592424;22;20000;-69
2021/04/08 03:23:58;;;;;;;18.08;9.20;;;3.20;99.90;;;;;;2568576;23;19997;-69
2021/04/08 03:24:59;;;;;;;15.57;9.27;;;3.20;99.90;;;;;;2568857;23;20001;-69
2021/04/08 03:26:01;;;;;;;15.00;8.35;;;3.20;99.90;;;;;;2569492;23;20019;-69
2021/04/08 03:27:04;;;;;;;15.05;8.95;;;3.20;99.90;;;;;;2569748;23;20024;-69
2021/04/08 03:28:07;;;;;;;18.40;9.45;;;3.20;99.90;;;;;;2569686;23;20004;-69
2021/04/08 03:29:08;;;;;;;19.30;9.60;;;3.20;99.90;;;;;;2569466;23;20004;-69
2021/04/08 03:30:11;;;;;;;16.70;9.35;;;3.20;99.90;;;;;;2569171;23;20448;-69
2021/04/08 03:31:13;;;;;;;15.77;9.70;;;3.20;99.90;;;;;;2569872;23;20005;-69
2021/04/08 03:32:17;;;;;;;15.35;8.50;;;3.20;99.90;;;;;;2568544;23;20046;-69
2021/04/08 03:33:18;;;;;;;17.30;9.88;;;3.20;99.90;;;;;;2569626;23;19993;-69
2021/04/08 03:34:21;;;;;;;17.15;9.00;;;3.20;99.90;;;;;;2569604;23;20000;-69
2021/04/08 03:35:22;;;;;;;18.35;9.27;;;3.20;99.90;;;;;;2569735;23;20296;-69
2021/04/08 03:36:25;;;;;;;19.20;9.88;;;3.20;99.90;;;;;;2569583;23;20478;-69
2021/04/08 03:37:26;;;;;;;18.02;9.52;;;3.20;99.90;;;;;;2568211;23;20009;-69
2021/04/08 03:38:28;;;;;;;13.80;9.00;;;3.20;99.90;;;;;;2568619;23;20000;-69
2021/04/08 03:39:29;;;;;;;15.95;9.50;;;3.20;99.90;;;;;;2569762;23;20005;-69
2021/04/08 03:40:30;;;;;;;14.73;9.57;;;3.10;99.90;;;;;;2569492;23;20017;-69
2021/04/08 03:41:39;;;;;;;17.10;8.20;;;3.10;99.90;;;;;;2569569;23;20016;-69
2021/04/08 03:42:41;;;;;;;17.52;8.77;;;3.20;99.90;;;;;;2568655;23;20462;-69
2021/04/08 03:43:44;;;;;;;13.07;7.03;;;3.10;99.90;;;;;;2569744;23;20051;-69
2021/04/08 03:44:45;;;;;;;16.90;8.73;;;3.10;99.90;;;;;;2569503;23;20418;-70
2021/04/08 03:45:45;;;;;;;15.27;9.85;;;3.10;99.90;;;;;;2569628;23;20333;-69
2021/04/08 03:46:48;;;;;;;13.98;8.52;;;3.10;99.90;;;;;;2568816;23;20008;-69
2021/04/08 03:47:49;;;;;;;14.60;7.25;;;3.10;99.90;;;;;;2569647;23;20321;-69
2021/04/08 03:48:51;;;;;;;15.98;8.57;;;3.10;99.90;;;;;;2569242;23;20057;-69
2021/04/08 03:49:53;;;;;;;21.33;9.88;;;3.10;99.90;;;;;;2569489;23;20042;-69
2021/04/08 03:50:56;;;;;;;15.48;9.00;;;3.10;99.90;;;;;;2569399;23;19996;-69
2021/04/08 03:51:57;;;;;;;17.05;9.32;;;3.00;99.90;;;;;;2569467;23;20364;-69
2021/04/08 03:52:58;;;;;;;17.38;9.02;;;3.00;99.90;;;;;;2568962;23;19997;-69
2021/04/08 03:54:00;;;;;;;12.15;7.38;;;3.00;99.90;;;;;;2569315;23;20008;-69
2021/04/08 03:55:03;;;;;;;13.82;8.98;;;3.00;99.90;;;;;;2569427;23;20015;-69
2021/04/08 03:56:05;;;;;;;12.85;8.20;;;3.00;99.90;;;;;;2569214;23;20001;-69
2021/04/08 03:57:10;;;;;;;15.55;8.13;;;3.00;99.90;;;;;;2569378;23;20055;-69
2021/04/08 03:58:12;;;;;;;11.98;7.68;;;3.00;99.90;;;;;;2569120;23;20000;-69
2021/04/08 03:59:14;;;;;;;12.90;7.43;;;3.00;99.90;;;;;;2569183;23;19992;-69
2021/04/08 04:00:15;;;;;;;17.02;8.40;;;3.00;99.90;;;;;;2569273;23;20108;-69
2021/04/08 04:01:16;;;;;;;12.18;7.93;;;3.00;99.90;;;;;;2569395;23;20008;-69
2021/04/08 04:02:20;;;;;;;14.00;8.45;;;3.00;99.90;;;;;;2568932;23;20008;-69
2021/04/08 04:03:21;;;;;;;15.85;8.98;;;3.00;99.90;;;;;;2569496;23;20018;-69
2021/04/08 04:04:25;;;;;;;17.45;9.57;;;2.90;99.90;;;;;;2569952;23;20079;-69
2021/04/08 04:05:26;;;;;;;13.43;9.05;;;3.00;99.90;;;;;;2569563;23;20425;-69
2021/04/08 04:06:28;;;;;;;15.07;9.13;;;2.90;99.90;;;;;;2569342;23;20084;-69
2021/04/08 04:07:31;;;;;;;11.10;7.57;;;2.90;99.90;;;;;;2569179;23;20012;-69
2021/04/08 04:08:32;;;;;;;18.15;8.52;;;2.90;99.90;;;;;;2569563;23;20401;-69
2021/04/08 04:09:33;;;;;;;13.43;8.32;;;2.90;99.90;;;;;;2569028;23;20333;-69
2021/04/08 04:10:36;;;;;;;13.73;7.78;;;2.90;99.90;;;;;;2569452;23;20005;-69
2021/04/08 04:11:43;;;;;;;13.60;8.27;;;2.90;99.90;;;;;;2569252;23;20001;-69
2021/04/08 04:12:44;;;;;;;14.18;7.82;;;2.90;99.90;;;;;;2569071;23;19996;-69
2021/04/08 04:13:48;;;;;;;12.70;7.32;;;2.90;99.90;;;;;;2569428;23;20001;-69
2021/04/08 04:14:49;;;;;;;14.70;7.72;;;2.90;99.90;;;;;;2569119;23;20016;-69
2021/04/08 04:15:51;;;;;;;14.95;7.45;;;2.90;99.90;;;;;;2569445;23;20004;-69
2021/04/08 04:16:54;;;;;;;14.20;7.85;;;2.90;99.90;;;;;;2569313;23;20011;-69
2021/04/08 04:17:55;;;;;;;14.73;7.13;;;2.90;99.90;;;;;;2569160;23;20004;-69
2021/04/08 04:18:55;;;;;;;11.77;6.25;;;2.90;99.90;;;;;;2569652;23;20011;-69
2021/04/08 04:19:57;;;;;;;13.15;7.43;;;2.90;99.90;;;;;;2568315;23;20004;-69
2021/04/08 04:20:58;;;;;;;14.05;7.95;;;2.80;99.90;;;;;;2568756;23;20512;-69
2021/04/08 04:21:58;;;;;;;17.67;8.52;;;2.80;99.90;;;;;;2569175;23;20697;-69
2021/04/08 04:22:59;;;;;;;14.60;8.15;;;2.80;99.90;;;;;;2568451;23;20306;-69
2021/04/08 04:24:00;;;;;;;13.45;7.13;;;2.80;99.90;;;;;;2569236;23;20009;-69
2021/04/08 04:25:01;;;;;;;11.82;6.82;;;2.80;99.90;;;;;;2569383;23;20492;-69
2021/04/08 04:26:01;;;;;;;14.57;9.18;;;2.80;99.90;;;;;;2569104;23;20084;-69
2021/04/08 04:27:02;;;;;;;12.90;7.30;;;2.80;99.90;;;;;;2569416;23;20009;-69
2021/04/08 04:28:03;;;;;;;17.95;7.15;;;2.80;99.90;;;;;;2569229;23;20004;-69
2021/04/08 04:29:04;;;;;;;14.75;8.10;;;2.80;99.90;;;;;;2569490;23;20008;-69
2021/04/08 04:30:06;;;;;;;12.95;7.25;;;2.80;99.90;;;;;;2569122;23;20012;-69
2021/04/08 04:31:07;;;;;;;11.68;6.88;;;2.80;99.90;;;;;;2568968;23;20454;-69
2021/04/08 04:32:09;;;;;;;15.27;8.23;;;2.80;99.90;;;;;;2568895;23;20056;-69
2021/04/08 04:33:09;;;;;;;17.02;8.38;;;2.80;99.90;;;;;;2569000;23;19996;-69
2021/04/08 04:34:10;;;;;;;16.05;8.52;;;2.80;99.90;;;;;;2567460;23;20015;-69
2021/04/08 04:35:10;;;;;;;11.63;7.57;;;2.80;99.90;;;;;;2568527;23;20070;-69
2021/04/08 04:36:11;;;;;;;13.52;7.97;;;2.80;99.90;;;;;;2569811;23;20025;-69
2021/04/08 04:37:12;;;;;;;17.77;8.40;;;2.70;99.90;;;;;;2569257;23;20004;-69
2021/04/08 04:38:12;;;;;;;16.95;7.78;;;2.70;99.90;;;;;;2570131;23;20004;-69
2021/04/08 04:39:13;;;;;;;15.05;8.15;;;2.70;99.90;;;;;;2569163;23;20015;-69
2021/04/08 04:40:14;;;;;;;12.63;7.88;;;2.70;99.90;;;;;;2569147;23;20004;-69
2021/04/08 04:41:15;;;;;;;14.93;8.95;;;2.70;99.90;;;;;;2569000;23;20429;-69
2021/04/08 04:42:16;;;;;;;14.10;7.75;;;2.70;99.90;;;;;;2568565;23;20370;-69
2021/04/08 04:43:16;;;;;;;11.23;7.90;;;2.70;99.90;;;;;;2569371;23;20871;-68
2021/04/08 04:44:17;;;;;;;15.60;8.27;;;2.70;99.90;;;;;;2568706;23;20005;-69
2021/04/08 04:45:18;;;;;;;17.23;8.32;;;2.60;99.90;;;;;;2569052;23;20005;-69
2021/04/08 04:46:18;;;;;;;14.95;7.72;;;2.60;99.90;;;;;;2568827;23;20441;-69
2021/04/08 04:47:19;;;;;;;15.93;8.20;;;2.60;99.90;;;;;;2568848;23;20012;-69
2021/04/08 04:48:19;;;;;;;12.73;7.82;;;2.60;99.90;;;;;;2569239;23;20009;-68
2021/04/08 04:49:20;;;;;;;14.02;7.88;;;2.60;99.90;;;;;;2569317;23;20430;-69
2021/04/08 04:50:20;;;;;;;13.95;7.78;;;2.60;99.90;;;;;;2569003;23;20000;-69
2021/04/08 04:51:21;;;;;;;19.20;8.40;;;2.60;99.90;;;;;;2569038;23;20584;-69
2021/04/08 04:52:22;;;;;;;12.13;7.90;;;2.60;99.90;;;;;;2568554;23;20005;-69
2021/04/08 04:53:22;;;;;;;12.07;8.55;;;2.60;99.90;;;;;;2569074;23;20003;-69
2021/04/08 04:54:23;;;;;;;21.10;7.85;;;2.60;99.90;;;;;;2568840;23;19997;-69
2021/04/08 04:55:23;;;;;;;12.68;7.93;;;2.60;99.90;;;;;;2568413;23;20397;-69
2021/04/08 04:56:24;;;;;;;20.35;8.27;;;2.60;99.90;;;;;;2569099;23;20056;-69
2021/04/08 04:57:24;;;;;;;13.80;7.57;;;2.60;99.90;;;;;;2569313;23;20131;-69
2021/04/08 04:58:25;;;;;;;16.40;7.78;;;2.60;99.90;;;;;;2568984;23;19997;-69
2021/04/08 04:59:26;;;;;;;14.02;7.80;;;2.60;99.90;;;;;;2568739;23;20003;-69
2021/04/08 05:00:26;;;;;;;14.27;7.93;;;2.60;99.90;;;;;;2568710;23;20003;-69
2021/04/08 05:01:28;;;;;;;20.00;8.43;;;2.60;99.90;;;;;;2568811;23;20063;-69
2021/04/08 05:02:28;;;;;;;19.58;7.68;;;2.60;99.90;;;;;;2568494;23;20004;-69
2021/04/08 05:03:29;;;;;;;20.00;8.75;;;2.60;99.90;;;;;;2569127;23;20016;-69
2021/04/08 05:04:29;;;;;;;17.30;8.77;;;2.60;99.90;;;;;;2568838;23;20341;-69
2021/04/08 05:05:30;;;;;;;16.48;7.97;;;2.60;99.90;;;;;;2568730;23;19996;-69
2021/04/08 05:06:30;;;;;;;14.15;8.30;;;2.60;99.90;;;;;;2569401;23;20488;-69
2021/04/08 05:07:31;;;;;;;12.10;8.07;;;2.60;99.90;;;;;;2568286;23;20015;-69
2021/04/08 05:08:32;;;;;;;18.92;8.93;;;2.70;99.90;;;;;;2568611;23;20425;-69
2021/04/08 05:09:32;;;;;;;16.45;8.90;;;2.70;99.90;;;;;;2569079;23;20635;-69
2021/04/08 05:10:33;;;;;;;14.93;8.45;;;2.70;99.90;;;;;;2568601;23;20424;-69
2021/04/08 05:11:34;;;;;;;19.20;8.60;;;2.70;99.90;;;;;;2568777;23;20063;-69
2021/04/08 05:12:34;;;;;;;14.25;7.82;;;2.70;99.90;;;;;;2567754;23;20007;-69
2021/04/08 05:13:35;;;;;;;14.50;7.88;;;2.70;99.90;;;;;;2568641;23;20000;-69
2021/04/08 05:14:35;;;;;;;16.80;8.75;;;2.70;99.90;;;;;;2568745;23;20001;-70
2021/04/08 05:15:36;;;;;;;20.63;8.20;;;2.80;99.90;;;;;;2568832;23;20080;-69
2021/04/08 05:16:36;;;;;;;16.58;8.13;;;2.80;99.90;;;;;;2568568;23;20003;-69
2021/04/08 05:17:37;;;;;;;17.27;7.88;;;2.80;99.90;;;;;;2569198;23;20025;-69
2021/04/08 05:18:37;;;;;;;15.18;7.95;;;2.80;99.90;;;;;;2567457;23;20031;-68
2021/04/08 05:19:38;;;;;;;9.82;7.50;;;2.90;99.90;;;;;;2568132;23;20088;-69
2021/04/08 05:20:38;;;;;;;16.30;8.30;;;2.90;99.90;;;;;;2568063;23;20447;-69
2021/04/08 05:21:39;;;;;;;18.80;7.18;;;2.90;99.90;;;;;;2569111;23;20000;-69
2021/04/08 05:22:39;;;;;;;13.50;7.68;;;2.90;99.90;;;;;;2568353;23;20356;-69
2021/04/08 05:23:40;;;;;;;15.82;7.63;;;2.90;99.90;;;;;;2569529;23;20135;-69
2021/04/08 05:24:41;;;;;;;14.48;7.50;;;2.90;99.90;;;;;;2568524;23;20054;-69
2021/04/08 05:25:41;;;;;;;12.95;7.15;;;3.00;99.90;;;;;;2568344;23;20031;-69
2021/04/08 05:26:42;;;;;;;13.98;7.63;;;3.00;99.90;;;;;;2568429;23;19997;-69
2021/04/08 05:27:42;;;;;;;16.85;7.43;;;3.00;99.90;;;;;;2569039;23;20024;-69